Time;durP1;ratioP1;P1;durP2;ratioP2;P2;SDS_P1;SDS_P2;PMS_P1;PMS_P2;Temp;Humidity;BMP_temperature;BMP_pressure;BME280_temperature;BME280_humidity;BME280_pressure;Samples;Min_cycle;Max_cycle;Signal;HPM_P1;HPM_P2
2020/12/14 00:01:04;;;;;;;3.03;2.37;;;18.90;23.50;;;;;;5095654;28;20621;-52
2020/12/14 00:03:31;;;;;;;2.50;2.28;;;18.90;23.40;;;;;;5077640;28;20169;-53
2020/12/14 00:05:56;;;;;;;2.70;2.50;;;18.90;23.40;;;;;;5077022;28;20671;-55
2020/12/14 00:08:26;;;;;;;1.93;1.77;;;18.90;23.50;;;;;;5095471;28;20157;-53
2020/12/14 00:10:51;;;;;;;3.25;2.25;;;18.90;23.50;;;;;;5095357;28;20635;-52
2020/12/14 00:13:17;;;;;;;1.90;1.73;;;18.90;23.50;;;;;;5095334;28;20214;-53
2020/12/14 00:15:42;;;;;;;3.10;2.57;;;18.90;23.50;;;;;;5077274;28;20572;-54
2020/12/14 00:18:08;;;;;;;1.97;1.77;;;18.90;23.50;;;;;;5095194;28;20158;-54
2020/12/14 00:20:34;;;;;;;2.40;2.13;;;18.90;23.60;;;;;;5094314;28;20199;-53
2020/12/14 00:22:59;;;;;;;2.03;1.83;;;18.90;23.60;;;;;;5094794;28;20509;-53
2020/12/14 00:25:25;;;;;;;2.40;2.20;;;18.90;23.60;;;;;;5076870;28;20193;-54
2020/12/14 00:27:51;;;;;;;2.10;1.90;;;18.90;23.60;;;;;;5095156;28;20184;-53
2020/12/14 00:30:16;;;;;;;2.20;1.90;;;18.90;23.60;;;;;;5076699;28;20177;-53
2020/12/14 00:32:42;;;;;;;2.23;2.03;;;18.90;23.60;;;;;;5094967;28;20226;-53
2020/12/14 00:35:07;;;;;;;1.90;1.73;;;18.90;23.70;;;;;;5095079;28;20157;-53
2020/12/14 00:37:33;;;;;;;3.30;1.83;;;18.90;23.70;;;;;;5094357;28;20514;-53
2020/12/14 00:39:59;;;;;;;2.43;2.23;;;18.90;23.80;;;;;;5094984;28;20155;-53
2020/12/14 00:42:25;;;;;;;2.40;2.17;;;18.90;23.80;;;;;;5094922;28;20158;-53
2020/12/14 00:44:50;;;;;;;2.57;2.20;;;18.90;23.80;;;;;;5094854;28;20396;-53
2020/12/14 00:47:16;;;;;;;1.70;1.60;;;18.80;23.70;;;;;;5094645;28;20201;-53
2020/12/14 00:49:43;;;;;;;2.33;2.08;;;18.80;23.70;;;;;;5094712;28;20158;-53
2020/12/14 00:52:09;;;;;;;2.42;2.22;;;18.80;23.70;;;;;;5094107;28;20157;-53
2020/12/14 00:54:35;;;;;;;2.38;2.17;;;18.80;23.70;;;;;;5094791;28;20169;-53
2020/12/14 00:57:02;;;;;;;2.20;2.00;;;18.80;23.80;;;;;;5091855;28;20153;-53
2020/12/14 00:59:28;;;;;;;2.22;2.03;;;18.80;23.80;;;;;;5094645;28;20614;-54
2020/12/14 01:01:56;;;;;;;2.77;2.27;;;18.80;23.80;;;;;;5094490;28;20680;-53
2020/12/14 01:04:25;;;;;;;2.38;2.17;;;18.80;23.80;;;;;;5094525;28;20513;-54
2020/12/14 01:06:59;;;;;;;2.30;2.10;;;18.80;23.80;;;;;;5093695;28;20189;-54
2020/12/14 01:09:25;;;;;;;2.35;2.15;;;18.80;23.80;;;;;;5076532;28;20150;-53
2020/12/14 01:11:51;;;;;;;2.93;2.47;;;18.80;23.80;;;;;;5094142;28;20207;-53
2020/12/14 01:14:16;;;;;;;1.90;1.70;;;18.80;23.80;;;;;;5094218;28;20244;-53
2020/12/14 01:16:42;;;;;;;2.67;2.10;;;18.80;23.80;;;;;;5094384;28;20487;-53
2020/12/14 01:19:08;;;;;;;2.40;1.60;;;18.80;23.80;;;;;;5094446;28;20165;-53
2020/12/14 01:21:33;;;;;;;2.20;2.00;;;18.80;23.80;;;;;;5075531;28;20646;-53
2020/12/14 01:23:59;;;;;;;1.83;1.73;;;18.80;23.80;;;;;;5059509;28;20169;-54
2020/12/14 01:26:25;;;;;;;2.63;1.73;;;18.80;23.80;;;;;;5076082;28;20223;-54
2020/12/14 01:28:50;;;;;;;2.10;1.70;;;18.80;23.80;;;;;;5094304;28;20240;-53
2020/12/14 01:31:16;;;;;;;2.17;1.93;;;18.80;23.90;;;;;;5075974;28;20166;-54
2020/12/14 01:33:42;;;;;;;2.50;1.70;;;18.80;23.90;;;;;;5093792;28;20237;-54
2020/12/14 01:36:07;;;;;;;2.43;2.10;;;18.80;23.90;;;;;;5093251;28;20228;-54
2020/12/14 01:38:33;;;;;;;2.40;1.80;;;18.80;23.90;;;;;;5094087;28;20162;-53
2020/12/14 01:40:59;;;;;;;2.00;1.70;;;18.80;24.40;;;;;;5093847;28;20434;-52
2020/12/14 01:43:25;;;;;;;2.27;1.90;;;18.80;23.90;;;;;;5094052;28;20428;-53
2020/12/14 01:45:51;;;;;;;2.10;1.90;;;18.80;23.90;;;;;;5093739;28;20223;-53
2020/12/14 01:48:17;;;;;;;2.73;1.70;;;18.70;23.80;;;;;;5094148;28;20271;-53
2020/12/14 01:50:43;;;;;;;1.90;1.70;;;18.80;23.90;;;;;;5093218;28;20400;-53
2020/12/14 01:53:11;;;;;;;2.30;1.70;;;18.70;23.90;;;;;;5093921;28;20150;-53
2020/12/14 01:55:41;;;;;;;1.92;1.70;;;18.70;23.90;;;;;;5094035;28;20166;-54
2020/12/14 01:58:07;;;;;;;2.00;1.90;;;18.70;23.90;;;;;;5093666;28;20239;-54
2020/12/14 02:00:33;;;;;;;2.97;2.40;;;18.70;23.90;;;;;;5093952;28;20169;-53
2020/12/14 02:02:59;;;;;;;2.30;2.10;;;18.70;23.90;;;;;;5093992;28;20496;-54
2020/12/14 02:05:24;;;;;;;2.10;1.90;;;18.70;24.50;;;;;;5074890;28;20430;-54
2020/12/14 02:07:50;;;;;;;2.10;1.90;;;18.70;23.90;;;;;;5093750;28;20640;-55
2020/12/14 02:10:16;;;;;;;2.50;1.83;;;18.70;23.90;;;;;;5075472;28;20273;-53
2020/12/14 02:12:42;;;;;;;1.50;1.40;;;18.70;23.90;;;;;;5093605;28;20225;-53
2020/12/14 02:15:08;;;;;;;2.00;1.90;;;18.70;23.90;;;;;;5093625;28;20233;-53
2020/12/14 02:17:34;;;;;;;2.47;1.90;;;18.70;24.00;;;;;;5093390;28;20158;-53
2020/12/14 02:20:02;;;;;;;2.50;2.00;;;18.70;23.90;;;;;;5075549;28;20165;-53
2020/12/14 02:22:27;;;;;;;2.10;1.90;;;18.70;23.90;;;;;;5093124;28;20663;-53
2020/12/14 02:25:00;;;;;;;2.63;1.87;;;18.70;24.00;;;;;;5093612;28;20154;-53
2020/12/14 02:27:27;;;;;;;1.50;1.40;;;18.70;23.90;;;;;;5093287;28;20157;-53
2020/12/14 02:29:54;;;;;;;2.40;2.10;;;18.70;24.00;;;;;;5093536;28;20162;-54
2020/12/14 02:32:21;;;;;;;1.63;1.52;;;18.70;24.00;;;;;;5093648;28;20157;-54
2020/12/14 02:34:48;;;;;;;2.58;2.10;;;18.70;24.00;;;;;;5075323;28;20563;-53
2020/12/14 02:37:16;;;;;;;2.45;1.75;;;18.70;24.00;;;;;;5092833;28;20211;-53
2020/12/14 02:39:42;;;;;;;2.45;1.98;;;18.70;24.00;;;;;;5093469;28;20195;-54
2020/12/14 02:42:13;;;;;;;2.70;2.00;;;18.70;24.00;;;;;;5092983;28;20162;-54
2020/12/14 02:44:40;;;;;;;3.28;2.13;;;18.70;24.00;;;;;;5076085;28;20183;-53
2020/12/14 02:47:07;;;;;;;1.75;1.65;;;18.60;24.00;;;;;;5097106;28;20200;-53
2020/12/14 02:49:33;;;;;;;1.98;1.70;;;18.70;24.00;;;;;;5097159;28;20613;-54
2020/12/14 02:51:59;;;;;;;2.20;1.90;;;18.70;24.00;;;;;;5096487;28;20146;-52
2020/12/14 02:54:25;;;;;;;1.43;1.33;;;18.60;24.50;;;;;;5078950;28;20643;-53
2020/12/14 02:56:51;;;;;;;2.53;2.17;;;18.60;24.00;;;;;;5078822;28;20415;-53
2020/12/14 02:59:17;;;;;;;2.07;1.87;;;18.70;24.10;;;;;;5096822;28;20197;-53
2020/12/14 03:01:43;;;;;;;2.30;2.08;;;18.60;24.00;;;;;;5078536;28;20533;-53
2020/12/14 03:04:09;;;;;;;1.90;1.80;;;18.60;24.00;;;;;;5096947;28;20170;-52
2020/12/14 03:06:35;;;;;;;2.45;2.25;;;18.60;24.00;;;;;;5096194;28;20204;-53
2020/12/14 03:09:01;;;;;;;2.40;2.20;;;18.60;24.00;;;;;;5078607;28;20166;-52
2020/12/14 03:11:27;;;;;;;2.25;1.98;;;18.60;24.00;;;;;;5078441;28;20241;-53
2020/12/14 03:13:56;;;;;;;2.50;2.30;;;18.60;24.00;;;;;;5096707;28;20367;-53
2020/12/14 03:16:22;;;;;;;4.65;2.08;;;18.60;24.00;;;;;;5096502;28;20169;-53
2020/12/14 03:18:47;;;;;;;2.10;1.77;;;18.60;24.00;;;;;;5061947;28;20517;-53
2020/12/14 03:21:13;;;;;;;2.27;2.00;;;18.60;24.00;;;;;;5095914;28;20185;-53
2020/12/14 03:23:38;;;;;;;2.57;2.10;;;18.60;24.00;;;;;;5078555;28;20567;-53
2020/12/14 03:26:04;;;;;;;2.80;1.60;;;18.60;24.00;;;;;;5078146;28;20190;-53
2020/12/14 03:28:30;;;;;;;2.10;1.90;;;18.60;24.00;;;;;;5096605;28;20158;-53
2020/12/14 03:30:55;;;;;;;1.83;1.60;;;18.60;24.10;;;;;;5096286;28;20268;-53
2020/12/14 03:33:21;;;;;;;1.47;1.37;;;18.60;24.00;;;;;;5096297;28;20150;-53
2020/12/14 03:35:47;;;;;;;1.90;1.80;;;18.60;24.00;;;;;;5095663;28;20161;-53
2020/12/14 03:38:16;;;;;;;1.80;1.70;;;18.60;24.10;;;;;;5096211;28;20161;-53
2020/12/14 03:40:43;;;;;;;2.03;1.80;;;18.60;24.10;;;;;;5096268;28;20400;-53
2020/12/14 03:43:09;;;;;;;2.22;1.95;;;18.60;24.10;;;;;;5077874;28;20181;-53
2020/12/14 03:45:34;;;;;;;1.90;1.60;;;18.60;24.10;;;;;;5095816;28;20228;-53
2020/12/14 03:48:00;;;;;;;1.90;1.80;;;18.60;24.10;;;;;;5078088;28;20609;-53
2020/12/14 03:50:26;;;;;;;2.60;2.03;;;18.60;24.10;;;;;;5077343;28;20192;-52
2020/12/14 03:52:51;;;;;;;1.80;1.70;;;18.60;24.10;;;;;;5095902;28;20162;-53
2020/12/14 03:55:17;;;;;;;1.97;1.77;;;18.60;24.10;;;;;;5077577;28;20158;-54
2020/12/14 03:57:43;;;;;;;2.10;1.80;;;18.60;24.10;;;;;;5095530;28;20242;-53
2020/12/14 04:00:08;;;;;;;2.27;2.10;;;18.60;24.10;;;;;;5095706;28;20531;-53
2020/12/14 04:02:34;;;;;;;2.40;1.80;;;18.70;24.10;;;;;;5095721;28;20158;-54
2020/12/14 04:04:59;;;;;;;2.00;1.67;;;18.70;24.10;;;;;;5077527;28;20521;-53
2020/12/14 04:07:26;;;;;;;1.83;1.53;;;18.60;24.10;;;;;;5077065;28;20190;-53
2020/12/14 04:09:52;;;;;;;1.90;1.80;;;18.70;24.10;;;;;;5095656;28;20207;-53
2020/12/14 04:12:18;;;;;;;1.70;1.60;;;18.70;24.10;;;;;;5095275;28;20162;-54
2020/12/14 04:14:43;;;;;;;1.53;1.43;;;18.70;24.10;;;;;;5095500;28;20158;-54
2020/12/14 04:17:09;;;;;;;3.50;1.80;;;18.70;24.10;;;;;;5095251;28;20162;-53
2020/12/14 04:19:34;;;;;;;1.73;1.63;;;18.70;24.10;;;;;;5095274;28;20162;-54
2020/12/14 04:22:00;;;;;;;2.07;1.60;;;18.70;24.10;;;;;;5094839;28;20606;-54
2020/12/14 04:24:26;;;;;;;1.87;1.67;;;18.70;24.10;;;;;;5077293;28;20162;-54
2020/12/14 04:26:55;;;;;;;2.38;2.05;;;18.70;24.10;;;;;;5076872;28;20252;-53
2020/12/14 04:29:21;;;;;;;1.90;1.80;;;18.70;24.10;;;;;;5095426;28;20154;-53
2020/12/14 04:31:49;;;;;;;2.67;2.25;;;18.70;24.10;;;;;;5095049;28;20600;-53
2020/12/14 04:34:15;;;;;;;1.63;1.40;;;18.70;24.10;;;;;;5095114;28;20203;-53
2020/12/14 04:36:47;;;;;;;1.60;1.50;;;18.70;24.10;;;;;;5094510;28;20162;-53
2020/12/14 04:39:13;;;;;;;2.35;1.90;;;18.70;24.10;;;;;;5094994;28;20165;-53
2020/12/14 04:41:39;;;;;;;2.00;1.70;;;18.70;24.10;;;;;;5094876;28;20154;-53
2020/12/14 04:44:07;;;;;;;2.97;2.20;;;18.70;24.10;;;;;;5076616;28;20419;-53
2020/12/14 04:46:34;;;;;;;2.00;1.55;;;18.70;24.20;;;;;;5094631;28;20255;-53
2020/12/14 04:49:07;;;;;;;2.80;1.75;;;18.70;24.10;;;;;;5094776;28;20170;-53
2020/12/14 04:51:36;;;;;;;1.77;1.55;;;18.70;24.10;;;;;;5075984;28;20172;-54
2020/12/14 04:54:03;;;;;;;2.00;1.80;;;18.70;24.20;;;;;;5094709;28;20158;-54
2020/12/14 04:56:29;;;;;;;1.67;1.52;;;18.70;24.70;;;;;;5094641;28;20165;-53
2020/12/14 04:58:56;;;;;;;1.43;1.33;;;18.70;24.10;;;;;;5076482;28;20189;-53
2020/12/14 05:01:23;;;;;;;1.45;1.30;;;18.70;24.10;;;;;;5094545;28;20197;-53
2020/12/14 05:03:49;;;;;;;1.45;1.35;;;18.70;24.10;;;;;;5076921;28;20244;-54
2020/12/14 05:06:15;;;;;;;2.00;1.80;;;18.70;24.10;;;;;;5093678;28;20276;-54
2020/12/14 05:08:41;;;;;;;2.35;1.80;;;18.70;24.10;;;;;;5059244;28;20185;-53
2020/12/14 05:11:08;;;;;;;2.30;2.10;;;18.70;24.10;;;;;;5094230;28;20204;-53
2020/12/14 05:13:34;;;;;;;2.20;2.00;;;18.70;24.10;;;;;;5076044;28;20209;-54
2020/12/14 05:16:00;;;;;;;1.90;1.73;;;18.70;24.10;;;;;;5076132;28;20551;-53
2020/12/14 05:18:26;;;;;;;1.70;1.20;;;18.70;24.10;;;;;;5076283;28;20807;-54
2020/12/14 05:21:05;;;;;;;1.83;1.67;;;18.70;24.10;;;;;;5093586;28;20877;-54
2020/12/14 05:23:32;;;;;;;1.50;1.40;;;18.70;24.10;;;;;;5076126;28;20244;-53
2020/12/14 05:26:04;;;;;;;1.45;1.33;;;18.70;24.10;;;;;;5058923;28;20530;-53
2020/12/14 05:28:29;;;;;;;2.22;2.05;;;18.80;24.20;;;;;;5094151;28;20169;-54
2020/12/14 05:30:55;;;;;;;1.70;1.60;;;18.70;24.10;;;;;;5093982;28;20601;-53
2020/12/14 05:33:23;;;;;;;3.07;1.40;;;18.80;24.20;;;;;;5075980;28;20862;-54
2020/12/14 05:35:49;;;;;;;1.55;1.45;;;18.70;24.10;;;;;;5093287;28;20181;-54
2020/12/14 05:38:26;;;;;;;1.42;1.33;;;18.70;24.10;;;;;;5076156;28;20199;-54
2020/12/14 05:41:00;;;;;;;1.80;1.50;;;18.80;24.10;;;;;;5093743;28;20223;-53
2020/12/14 05:43:31;;;;;;;1.70;1.45;;;18.80;24.20;;;;;;5094256;28;20172;-53
2020/12/14 05:46:10;;;;;;;1.70;1.60;;;18.80;24.10;;;;;;5093665;28;20278;-53
2020/12/14 05:48:36;;;;;;;2.40;2.05;;;18.80;24.20;;;;;;5093915;28;20181;-53
2020/12/14 05:51:04;;;;;;;1.80;1.70;;;18.80;24.20;;;;;;5093181;28;20193;-54
2020/12/14 05:53:50;;;;;;;1.60;1.30;;;18.80;24.20;;;;;;5093950;28;20149;-53
2020/12/14 05:56:17;;;;;;;1.50;1.40;;;18.80;24.10;;;;;;5093539;28;20177;-54
2020/12/14 05:58:43;;;;;;;1.92;1.70;;;18.80;24.10;;;;;;5093715;28;20521;-54
2020/12/14 06:01:09;;;;;;;1.90;1.80;;;18.80;24.10;;;;;;5075686;28;20597;-54
2020/12/14 06:03:36;;;;;;;1.60;1.50;;;18.80;24.10;;;;;;5093716;28;20395;-53
2020/12/14 06:06:08;;;;;;;2.50;1.77;;;18.80;24.10;;;;;;5092896;28;20193;-53
2020/12/14 06:08:46;;;;;;;2.00;1.63;;;18.80;24.20;;;;;;5093501;28;20146;-53
2020/12/14 06:11:16;;;;;;;1.65;1.55;;;18.80;24.20;;;;;;5093341;28;20165;-53
2020/12/14 06:13:55;;;;;;;2.53;1.77;;;18.70;24.10;;;;;;5093437;28;20233;-53
2020/12/14 06:16:26;;;;;;;2.22;2.03;;;18.80;24.10;;;;;;5093569;28;20287;-53
2020/12/14 06:18:53;;;;;;;1.77;1.42;;;18.80;24.20;;;;;;5075501;28;20178;-54
2020/12/14 06:21:22;;;;;;;1.55;1.45;;;18.80;24.20;;;;;;5096598;28;20177;-54
2020/12/14 06:23:49;;;;;;;2.03;1.83;;;18.80;24.20;;;;;;5097605;28;20164;-53
2020/12/14 06:26:16;;;;;;;1.50;1.40;;;18.80;24.20;;;;;;5078772;28;20229;-53
2020/12/14 06:28:52;;;;;;;1.70;1.50;;;18.80;24.10;;;;;;5097357;28;20161;-53
2020/12/14 06:31:40;;;;;;;1.58;1.48;;;18.80;24.10;;;;;;5097294;28;20154;-54
2020/12/14 06:34:31;;;;;;;2.85;1.92;;;18.80;24.10;;;;;;5097464;28;20146;-54
2020/12/14 06:36:57;;;;;;;1.52;1.42;;;18.80;24.10;;;;;;5078528;28;20547;-52
2020/12/14 06:39:29;;;;;;;1.55;1.45;;;18.80;24.10;;;;;;5097082;28;20166;-54
2020/12/14 06:42:14;;;;;;;1.50;1.40;;;18.80;24.10;;;;;;5096952;28;20154;-54
2020/12/14 06:44:43;;;;;;;1.63;1.52;;;18.80;24.10;;;;;;5079517;28;20675;-54
2020/12/14 06:47:16;;;;;;;1.67;1.52;;;18.80;24.10;;;;;;5096756;28;20194;-53
2020/12/14 06:49:43;;;;;;;2.10;1.73;;;18.80;24.10;;;;;;5097193;28;20173;-52
2020/12/14 06:52:09;;;;;;;2.00;1.42;;;18.80;24.10;;;;;;5096586;28;20181;-53
2020/12/14 06:54:47;;;;;;;1.43;1.03;;;18.80;24.10;;;;;;5097163;28;20201;-54
2020/12/14 06:57:14;;;;;;;1.63;1.52;;;18.90;24.10;;;;;;5096417;28;20475;-53
2020/12/14 06:59:39;;;;;;;1.70;1.60;;;18.90;24.20;;;;;;5096998;28;20158;-54
2020/12/14 07:02:07;;;;;;;1.60;1.50;;;18.80;24.10;;;;;;5078656;28;20651;-53
2020/12/14 07:04:33;;;;;;;1.98;1.60;;;18.80;24.10;;;;;;5096892;28;20889;-54
2020/12/14 07:07:04;;;;;;;1.47;1.37;;;18.90;24.10;;;;;;5096056;28;20196;-53
2020/12/14 07:09:39;;;;;;;1.70;1.60;;;18.90;24.10;;;;;;5096462;28;20158;-54
2020/12/14 07:12:13;;;;;;;1.65;1.55;;;18.90;24.10;;;;;;5078039;28;20153;-54
2020/12/14 07:14:49;;;;;;;1.50;1.40;;;18.90;24.10;;;;;;5096030;28;20557;-54
2020/12/14 07:17:20;;;;;;;2.00;1.80;;;18.90;24.10;;;;;;5095783;28;20150;-53
2020/12/14 07:19:47;;;;;;;4.78;4.38;;;18.90;24.10;;;;;;5091399;28;20188;-52
2020/12/14 07:22:21;;;;;;;7.28;6.05;;;18.70;21.30;;;;;;5071569;28;20629;-54
2020/12/14 07:24:58;;;;;;;6.25;5.75;;;17.90;19.40;;;;;;5077403;28;20510;-54
2020/12/14 07:27:23;;;;;;;6.72;6.22;;;17.20;22.30;;;;;;5094781;28;20200;-54
2020/12/14 07:29:49;;;;;;;7.83;7.13;;;16.90;19.40;;;;;;5094943;28;20149;-53
2020/12/14 07:32:15;;;;;;;6.93;6.43;;;16.60;19.60;;;;;;5095391;28;20869;-54
2020/12/14 07:34:54;;;;;;;8.70;7.90;;;16.40;19.90;;;;;;5060418;28;20154;-53
2020/12/14 07:37:25;;;;;;;8.30;7.60;;;16.10;19.60;;;;;;5093658;28;20272;-56
2020/12/14 07:39:52;;;;;;;7.50;6.90;;;15.90;20.10;;;;;;5094275;28;20184;-54
2020/12/14 07:42:23;;;;;;;7.47;6.78;;;15.80;19.90;;;;;;5077122;28;20162;-54
2020/12/14 07:44:49;;;;;;;6.10;5.35;;;15.80;20.70;;;;;;5095523;28;20178;-53
2020/12/14 07:47:21;;;;;;;5.27;4.77;;;15.90;21.40;;;;;;5064428;28;20241;-54
2020/12/14 07:49:47;;;;;;;5.03;4.63;;;16.10;21.50;;;;;;5063511;28;20604;-53
2020/12/14 07:52:26;;;;;;;5.80;5.30;;;16.20;21.60;;;;;;5093296;28;20242;-54
2020/12/14 07:55:06;;;;;;;6.20;5.50;;;16.40;21.80;;;;;;5077082;28;20457;-54
2020/12/14 07:57:37;;;;;;;5.75;5.20;;;16.50;21.60;;;;;;5089737;28;20210;-54
2020/12/14 08:00:10;;;;;;;5.15;4.75;;;16.70;21.20;;;;;;5074382;28;20158;-54
2020/12/14 08:02:38;;;;;;;5.18;4.78;;;16.80;20.90;;;;;;5081687;28;20200;-52
2020/12/14 08:05:10;;;;;;;4.80;4.40;;;16.90;20.90;;;;;;4996954;28;20478;-53
2020/12/14 08:08:03;;;;;;;5.15;4.28;;;17.00;21.30;;;;;;5054055;28;20213;-53
2020/12/14 08:10:32;;;;;;;4.50;4.10;;;17.10;21.00;;;;;;5060390;28;20169;-53
2020/12/14 08:13:13;;;;;;;4.40;3.95;;;17.30;21.20;;;;;;5063512;28;20221;-53
2020/12/14 08:15:40;;;;;;;3.45;3.15;;;17.50;21.30;;;;;;5056296;28;20180;-54
2020/12/14 08:18:06;;;;;;;4.25;3.85;;;17.60;21.40;;;;;;5025156;28;20181;-52
2020/12/14 08:20:34;;;;;;;3.67;3.10;;;17.70;21.60;;;;;;5065368;28;20185;-54
2020/12/14 08:23:02;;;;;;;4.70;3.22;;;17.90;21.80;;;;;;5059445;28;20188;-54
2020/12/14 08:25:31;;;;;;;3.22;2.85;;;17.90;21.70;;;;;;5047707;28;20191;-54
2020/12/14 08:28:00;;;;;;;3.20;2.90;;;18.10;21.60;;;;;;5012379;28;20170;-53
2020/12/14 08:30:28;;;;;;;2.67;2.47;;;18.10;21.70;;;;;;5050883;28;20182;-53
2020/12/14 08:33:13;;;;;;;3.92;3.33;;;18.20;21.80;;;;;;5035035;28;21386;-52
2020/12/14 08:35:43;;;;;;;2.33;2.10;;;18.30;21.90;;;;;;5001055;28;20844;-54
2020/12/14 08:38:23;;;;;;;2.45;2.25;;;18.40;21.90;;;;;;5058052;28;20632;-54
2020/12/14 08:41:03;;;;;;;2.90;2.45;;;18.40;21.90;;;;;;5053812;28;20180;-54
2020/12/14 08:43:31;;;;;;;2.60;2.40;;;18.50;21.90;;;;;;5047172;28;20180;-55
2020/12/14 08:46:08;;;;;;;2.20;2.00;;;18.60;22.00;;;;;;5045551;28;20212;-54
2020/12/14 08:48:46;;;;;;;2.92;1.88;;;18.60;22.10;;;;;;5058387;28;20192;-54
2020/12/14 08:51:32;;;;;;;2.35;2.15;;;18.60;22.10;;;;;;5031640;28;20206;-54
2020/12/14 08:54:17;;;;;;;1.95;1.85;;;18.70;22.10;;;;;;5033206;28;20244;-54
2020/12/14 08:56:44;;;;;;;1.63;1.52;;;18.80;22.30;;;;;;5033444;28;20200;-53
2020/12/14 08:59:18;;;;;;;2.22;1.85;;;18.80;22.30;;;;;;5050636;28;20310;-53
2020/12/14 09:02:04;;;;;;;2.00;1.85;;;18.90;22.20;;;;;;5029942;28;20220;-52
2020/12/14 09:04:36;;;;;;;2.33;1.80;;;18.90;22.10;;;;;;5033184;28;20182;-54
2020/12/14 09:07:03;;;;;;;2.50;2.30;;;19.00;22.40;;;;;;5052104;28;20228;-53
2020/12/14 09:09:38;;;;;;;1.70;1.60;;;19.00;22.60;;;;;;5057838;28;20320;-52
2020/12/14 09:12:11;;;;;;;10.80;1.83;;;19.00;22.70;;;;;;5036330;28;20690;-54
2020/12/14 09:14:37;;;;;;;1.80;1.70;;;19.10;22.80;;;;;;5031270;28;20181;-54
2020/12/14 09:17:11;;;;;;;3.20;1.80;;;19.10;22.70;;;;;;5049302;28;20198;-53
2020/12/14 09:19:40;;;;;;;2.22;1.63;;;19.10;22.80;;;;;;5053675;28;21231;-53
2020/12/14 09:22:07;;;;;;;1.85;1.30;;;19.20;33.60;;;;;;5055404;28;20185;-54
2020/12/14 09:24:36;;;;;;;4.30;2.25;;;19.10;22.70;;;;;;5036628;28;20251;-55
2020/12/14 09:27:21;;;;;;;2.20;2.00;;;19.20;22.70;;;;;;5052546;28;20193;-56
2020/12/14 09:29:47;;;;;;;3.30;1.73;;;19.20;22.80;;;;;;5048026;28;20182;-55
2020/12/14 09:32:13;;;;;;;1.83;1.70;;;19.20;22.70;;;;;;5054252;28;20911;-55
2020/12/14 09:34:41;;;;;;;2.28;1.55;;;19.30;22.80;;;;;;5036807;28;20212;-57
2020/12/14 09:37:07;;;;;;;2.63;1.85;;;19.20;22.70;;;;;;5053855;28;20274;-55
2020/12/14 09:39:34;;;;;;;1.98;1.88;;;20.20;23.40;;;;;;5038232;28;20220;-56
2020/12/14 09:42:00;;;;;;;1.90;1.60;;;19.30;22.80;;;;;;5049782;28;20166;-56
2020/12/14 09:44:28;;;;;;;2.15;1.60;;;19.30;22.80;;;;;;5030490;28;20174;-54
2020/12/14 09:46:54;;;;;;;2.35;1.90;;;19.30;22.80;;;;;;5045463;28;20193;-56
2020/12/14 09:49:22;;;;;;;2.72;2.20;;;19.40;22.80;;;;;;5057607;28;20161;-57
2020/12/14 09:51:49;;;;;;;2.30;2.10;;;19.40;22.80;;;;;;5054535;28;20186;-59
2020/12/14 09:54:17;;;;;;;3.83;1.70;;;19.40;22.80;;;;;;5034405;28;20185;-54
2020/12/14 09:56:43;;;;;;;2.20;1.42;;;19.40;22.90;;;;;;5046040;28;20293;-59
2020/12/14 09:59:09;;;;;;;1.65;1.40;;;19.50;22.90;;;;;;5051190;28;20193;-55
2020/12/14 10:01:36;;;;;;;3.22;1.88;;;;;;;;;;5056106;28;20574;-53
2020/12/14 10:04:02;;;;;;;2.97;2.00;;;19.50;22.30;;;;;;5034411;28;20538;-55
2020/12/14 10:06:29;;;;;;;2.80;1.70;;;19.60;22.90;;;;;;5058193;28;20197;-52
2020/12/14 10:08:56;;;;;;;5.20;2.10;;;19.60;22.50;;;;;;5055787;28;20614;-54
2020/12/14 10:11:27;;;;;;;3.75;2.78;;;19.70;23.10;;;;;;5027698;28;20662;-54
2020/12/14 10:13:53;;;;;;;7.38;2.28;;;19.70;23.20;;;;;;5041689;28;20262;-52
2020/12/14 10:16:21;;;;;;;4.25;1.88;;;19.80;23.30;;;;;;5033069;28;20185;-53
2020/12/14 10:18:47;;;;;;;4.03;1.77;;;19.80;23.30;;;;;;5037687;28;20239;-53
2020/12/14 10:21:13;;;;;;;4.95;1.80;;;19.90;23.40;;;;;;5054789;28;20637;-55
2020/12/14 10:23:38;;;;;;;3.43;1.93;;;19.90;23.50;;;;;;5027495;28;21395;-52
2020/12/14 10:26:05;;;;;;;5.70;2.00;;;19.90;23.60;;;;;;5042691;28;20719;-52
2020/12/14 10:28:36;;;;;;;2.85;1.60;;;20.00;23.50;;;;;;5059081;28;20539;-54
2020/12/14 10:31:04;;;;;;;6.68;1.70;;;20.00;23.60;;;;;;5032166;28;20186;-54
2020/12/14 10:33:31;;;;;;;3.92;2.10;;;20.00;23.70;;;;;;5045484;28;21555;-55
2020/12/14 10:35:57;;;;;;;4.47;2.00;;;20.10;23.80;;;;;;5018797;28;20263;-56
2020/12/14 10:38:23;;;;;;;2.03;1.77;;;20.10;23.70;;;;;;5049998;28;20200;-55
2020/12/14 10:40:49;;;;;;;2.00;1.80;;;20.20;23.90;;;;;;5033782;28;20308;-57
2020/12/14 10:43:15;;;;;;;2.30;1.70;;;20.20;23.90;;;;;;5033293;28;20830;-55
2020/12/14 10:45:41;;;;;;;1.70;1.50;;;20.20;23.90;;;;;;5035461;28;20851;-54
2020/12/14 10:48:07;;;;;;;3.60;1.50;;;20.20;23.90;;;;;;5046233;28;20664;-55
2020/12/14 10:50:33;;;;;;;1.77;1.50;;;20.20;24.20;;;;;;5058117;28;20235;-54
2020/12/14 10:52:59;;;;;;;3.90;2.25;;;20.20;24.30;;;;;;5043859;28;20531;-54
2020/12/14 10:55:25;;;;;;;1.67;1.50;;;20.20;24.30;;;;;;5008325;28;20189;-54
2020/12/14 10:57:51;;;;;;;5.60;1.73;;;20.20;24.30;;;;;;5057094;28;20213;-55
2020/12/14 11:00:20;;;;;;;4.43;2.03;;;20.30;24.40;;;;;;5016889;28;20449;-53
2020/12/14 11:02:46;;;;;;;4.40;1.73;;;20.30;24.40;;;;;;5032681;28;20327;-54
2020/12/14 11:05:11;;;;;;;2.23;1.60;;;20.30;24.40;;;;;;5033900;28;20943;-53
2020/12/14 11:07:38;;;;;;;3.57;2.70;;;20.30;24.40;;;;;;5029616;28;20217;-50
2020/12/14 11:10:07;;;;;;;3.20;2.35;;;20.30;23.70;;;;;;5061577;28;20513;-53
2020/12/14 11:12:33;;;;;;;2.63;1.85;;;20.00;23.30;;;;;;5059583;28;20217;-52
2020/12/14 11:14:59;;;;;;;2.92;1.95;;;19.90;24.10;;;;;;5046641;28;20194;-52
2020/12/14 11:17:25;;;;;;;2.38;2.17;;;20.50;24.60;;;;;;5052859;28;20183;-53
2020/12/14 11:19:51;;;;;;;2.23;1.90;;;19.90;24.10;;;;;;5032792;28;20841;-52
2020/12/14 11:22:18;;;;;;;5.93;3.10;;;20.00;24.20;;;;;;5055936;28;20645;-52
2020/12/14 11:24:44;;;;;;;5.35;2.70;;;20.00;24.10;;;;;;5033732;28;20296;-54
2020/12/14 11:27:10;;;;;;;3.20;2.30;;;20.10;23.90;;;;;;5035846;28;20287;-58
2020/12/14 11:29:35;;;;;;;1.73;1.63;;;20.10;23.90;;;;;;5053966;28;20162;-54
2020/12/14 11:32:01;;;;;;;2.93;2.40;;;20.20;23.90;;;;;;5055987;28;20188;-54
2020/12/14 11:34:27;;;;;;;4.30;2.40;;;20.20;23.70;;;;;;5013368;28;20260;-56
2020/12/14 11:36:53;;;;;;;8.40;2.90;;;20.20;23.60;;;;;;5036000;28;20605;-55
2020/12/14 11:39:19;;;;;;;5.73;3.57;;;20.20;23.40;;;;;;5049925;28;20247;-55
2020/12/14 11:41:48;;;;;;;5.60;4.17;;;20.20;23.30;;;;;;5063996;28;21487;-54
2020/12/14 11:44:15;;;;;;;6.10;5.05;;;20.20;23.20;;;;;;5032093;28;20573;-55
2020/12/14 11:46:47;;;;;;;8.00;4.70;;;20.30;23.30;;;;;;5048903;28;20658;-54
2020/12/14 11:49:13;;;;;;;17.25;6.65;;;20.20;23.20;;;;;;5052712;28;20173;-55
2020/12/14 11:51:41;;;;;;;9.07;6.00;;;20.30;23.40;;;;;;5052032;28;20916;-54
2020/12/14 11:54:06;;;;;;;10.40;6.50;;;20.30;23.90;;;;;;5045241;28;20166;-55
2020/12/14 11:56:32;;;;;;;7.63;6.83;;;20.30;24.40;;;;;;5048763;28;20729;-56
2020/12/14 11:58:58;;;;;;;12.73;7.97;;;20.30;24.40;;;;;;5038906;28;20596;-56
2020/12/14 12:01:24;;;;;;;9.93;6.90;;;20.30;24.40;;;;;;5044911;28;21011;-56
2020/12/14 12:03:50;;;;;;;6.47;5.50;;;20.30;24.40;;;;;;5022555;28;20182;-55
2020/12/14 12:06:16;;;;;;;8.38;6.88;;;20.30;24.40;;;;;;5048971;28;21325;-55
2020/12/14 12:08:42;;;;;;;7.72;7.00;;;20.30;24.40;;;;;;5050766;28;20215;-54
2020/12/14 12:11:12;;;;;;;13.07;8.13;;;20.30;24.40;;;;;;5066716;28;20157;-55
2020/12/14 12:13:39;;;;;;;10.32;6.90;;;20.40;24.50;;;;;;5032734;28;20230;-55
2020/12/14 12:16:06;;;;;;;10.23;7.03;;;21.10;24.90;;;;;;5020606;28;20205;-56
2020/12/14 12:18:32;;;;;;;9.68;6.93;;;20.40;24.40;;;;;;5051613;28;20201;-55
2020/12/14 12:20:58;;;;;;;7.65;6.13;;;20.50;24.50;;;;;;5035547;28;20201;-55
2020/12/14 12:23:24;;;;;;;7.30;6.40;;;20.50;24.50;;;;;;5041668;28;20300;-56
2020/12/14 12:25:50;;;;;;;9.93;6.23;;;20.70;24.70;;;;;;5047686;28;20483;-56
2020/12/14 12:28:15;;;;;;;7.07;6.33;;;20.50;24.50;;;;;;5048047;28;20178;-56
2020/12/14 12:30:41;;;;;;;11.13;6.70;;;20.50;24.50;;;;;;5048829;28;20181;-56
2020/12/14 12:33:07;;;;;;;8.80;5.90;;;20.50;24.50;;;;;;5062393;28;20182;-56
2020/12/14 12:35:32;;;;;;;7.50;6.50;;;20.60;24.60;;;;;;5021469;28;20326;-54
2020/12/14 12:37:58;;;;;;;10.17;7.03;;;20.50;24.50;;;;;;5058376;28;20166;-55
2020/12/14 12:40:24;;;;;;;9.80;6.83;;;20.60;24.60;;;;;;5058048;28;20201;-54
2020/12/14 12:42:49;;;;;;;10.87;6.70;;;20.60;24.40;;;;;;5051213;28;20532;-53
2020/12/14 12:45:15;;;;;;;9.53;7.90;;;20.60;24.30;;;;;;5029446;28;20248;-53
2020/12/14 12:47:42;;;;;;;13.40;7.37;;;20.60;24.30;;;;;;5050628;28;20966;-53
2020/12/14 12:50:08;;;;;;;10.50;6.85;;;20.60;24.40;;;;;;5062838;28;20212;-54
2020/12/14 12:52:34;;;;;;;7.00;6.00;;;20.70;24.20;;;;;;5051003;28;20261;-55